Alpine Persefone — A8MS7 — position and weather

sailwx.info

Track history (hours):
 
Tides and Currents Weather Stations Pressure Air Temp Water Temp Dewpoint Dewpoint Depression Visibility Wind Speed Wind Dir Waves Ship Positions

Alpine Persefone

Last reported at 2014-Jul-14 18:32 UTC. Time now 2014-Sep-24 04:27 UTC.
Position N 36°07' W 005°24'.
Warning: this ship's position is months out of date.

Length 226 m; draft 13.8 m.

Type: Tanker. MMSI: 636013411.

Date/timePositionNaut miles runAvg speedWind from/ knotsBaromVisibWave heightAir tempDewpointWater temp
2014-Jul-14 18:32N 36°07' W 005°24'0 0.0
2014-Jul-14 16:32N 36°07' W 005°24'0 0.1
2014-Jul-14 15:32N 36°07' W 005°24'0 0.0
2014-Jul-14 14:29N 36°07' W 005°24'0 0.1
2014-Jul-14 13:32N 36°07' W 005°24'0 0.0
2014-Jul-13 20:28N 36°07' W 005°24'  
2014-Jul-11 10:24N 35°59' W 005°24'12612.7
2014-Jul-11 00:29N 36°14' W 007°58'1213.1
2014-Jul-10 23:33N 36°17' W 008°13'1313.1
2014-Jul-10 22:33N 36°20' W 008°29'1313.0
2014-Jul-10 21:33N 36°23' W 008°45'1312.9
2014-Jul-10 20:33N 36°26' W 008°60'1312.7
2014-Jul-10 19:33N 36°29' W 009°15'1312.7
2014-Jul-10 18:33N 36°37' W 009°28'1312.6
2014-Jul-10 17:33N 36°47' W 009°38'1313.0
2014-Jul-10 16:33N 36°60' W 009°42'1313.1
2014-Jul-10 15:31N 37°13' W 009°45'1313.1
2014-Jul-10 14:33N 37°25' W 009°49'1313.1
2014-Jul-10 13:33N 37°38' W 009°52'1413.4
2014-Jul-10 12:33N 37°51' W 009°56'1313.2
2014-Jul-10 11:33N 38°04' W 010°00'1313.1
2014-Jul-10 10:33N 38°16' W 010°04'1313.3
2014-Jul-10 09:33N 38°29' W 010°08'2613.1
2014-Jul-10 07:33N 38°55' W 010°11'1312.8
2014-Jul-10 06:33N 39°08' W 010°11'1313.0
2014-Jul-10 05:33N 39°21' W 010°11'1312.7
2014-Jul-10 04:33N 39°34' W 010°11'  
2014-Jul-07 11:22N 50°26' W 000°23'1213.7
2014-Jul-07 10:30N 50°29' W 000°05'1313.8
2014-Jul-07 09:32N 50°33' E 000°15'1313.5
2014-Jul-07 08:33N 50°36' E 000°35'1312.8
2014-Jul-07 07:33N 50°44' E 000°51'1411.9
2014-Jul-07 06:23N 50°53' E 001°08'911.3
2014-Jul-07 05:33N 50°59' E 001°19'1211.6
2014-Jul-07 04:33N 51°07' E 001°33'1312.9
2014-Jul-07 03:33N 51°16' E 001°48'1212.2
2014-Jul-07 02:33N 51°24' E 002°02'1512.1
2014-Jul-07 01:18N 51°22' E 002°27'1112.4
2014-Jul-07 00:27N 51°23' E 002°43'1111.2
2014-Jul-06 23:30N 51°25' E 003°00'1213.2
2014-Jul-06 22:33N 51°24' E 003°20'1212.4
2014-Jul-06 21:33N 51°26' E 003°40'1110.7
2014-Jul-06 20:33N 51°22' E 003°56'7 6.7
2014-Jul-06 19:33N 51°22' E 004°06'7 7.0
2014-Jul-06 18:34N 51°21' E 004°17'0 0.1
2014-Jul-06 17:33N 51°21' E 004°17'3 3.0
2014-Jul-06 16:33N 51°18' E 004°20'1 0.9
2014-Jul-06 15:33N 51°17' E 004°20'0 0.0
2014-Jul-06 14:33N 51°17' E 004°20'0 0.0
2014-Jul-06 13:33N 51°17' E 004°20'0 0.0
2014-Jul-06 12:33N 51°17' E 004°20'0 0.0
2014-Jul-06 11:33N 51°17' E 004°20'0 0.0
2014-Jul-06 10:33N 51°17' E 004°20'0 0.0
2014-Jul-06 09:33N 51°17' E 004°20'0 0.0
2014-Jul-06 08:27N 51°17' E 004°20'0 0.0
2014-Jul-06 07:33N 51°17' E 004°20'0 0.0
2014-Jul-06 06:27N 51°17' E 004°20'0 0.0
2014-Jul-06 05:33N 51°17' E 004°20'0 0.0
2014-Jul-06 04:33N 51°17' E 004°20'0 0.0
2014-Jul-06 03:33N 51°17' E 004°20'0 0.0
2014-Jul-06 02:33N 51°17' E 004°20'0 0.0
2014-Jul-06 01:33N 51°17' E 004°20'0 0.0
2014-Jul-06 00:33N 51°17' E 004°20'0 0.0
2014-Jul-05 23:33N 51°17' E 004°20'0 0.0
2014-Jul-05 22:30N 51°17' E 004°20'0 0.0
2014-Jul-05 21:33N 51°17' E 004°20'0 0.0
2014-Jul-05 20:33N 51°17' E 004°20'0 0.0
2014-Jul-05 19:30N 51°17' E 004°20'0 0.0
2014-Jul-05 18:30N 51°17' E 004°20'0 0.0
2014-Jul-05 17:30N 51°17' E 004°20'0 0.0
2014-Jul-05 16:33N 51°17' E 004°20'0 0.0
2014-Jul-05 15:30N 51°17' E 004°20'0 0.0
2014-Jul-05 14:33N 51°17' E 004°20'0 0.0
2014-Jul-05 13:33N 51°17' E 004°20'0 0.0
2014-Jul-05 12:33N 51°17' E 004°20'0 0.0
2014-Jul-05 11:33N 51°17' E 004°20'0 0.0
2014-Jul-05 10:30N 51°17' E 004°20'0 0.0
2014-Jul-05 09:27N 51°17' E 004°20'0 0.0
2014-Jul-05 08:30N 51°17' E 004°20'0 0.0
2014-Jul-05 07:30N 51°17' E 004°20'0 0.0
2014-Jul-05 06:33N 51°17' E 004°20'0 0.0
2014-Jul-05 05:33N 51°17' E 004°20'0 0.0
2014-Jul-05 04:27N 51°17' E 004°20'0 0.0
2014-Jul-05 03:30N 51°17' E 004°20'0 0.0
2014-Jul-05 02:33N 51°17' E 004°20'0 0.0
2014-Jul-05 01:33N 51°17' E 004°20'0 0.0
2014-Jul-05 00:33N 51°17' E 004°20'0 0.0
2014-Jul-04 23:33N 51°17' E 004°20'0 0.0
2014-Jul-04 22:33N 51°17' E 004°20'0 0.0
2014-Jul-04 21:33N 51°17' E 004°20'0 0.0
2014-Jul-04 20:30N 51°17' E 004°20'0 0.0
2014-Jul-04 19:33N 51°17' E 004°20'  
Track history (hours):
 
Tides and Currents Weather Stations Pressure Air Temp Water Temp Dewpoint Dewpoint Depression Visibility Wind Speed Wind Dir Waves Ship Positions

Alpine Persefone

Last reported at 2014-Jul-14 18:32 UTC. Time now 2014-Sep-24 04:27 UTC.
Position N 36°07' W 005°24'.
Warning: this ship's position is months out of date.

Length 226 m; draft 13.8 m.

Type: Tanker. MMSI: 636013411.

Date/timePositionNaut miles runAvg speedWind from/ knotsBaromVisibWave heightAir tempDewpointWater temp
2014-Jul-14 18:32N 36°07' W 005°24'0 0.0
2014-Jul-14 16:32N 36°07' W 005°24'0 0.1
2014-Jul-14 15:32N 36°07' W 005°24'0 0.0
2014-Jul-14 14:29N 36°07' W 005°24'0 0.1
2014-Jul-14 13:32N 36°07' W 005°24'0 0.0
2014-Jul-13 20:28N 36°07' W 005°24'  
2014-Jul-11 10:24N 35°59' W 005°24'12612.7
2014-Jul-11 00:29N 36°14' W 007°58'1213.1
2014-Jul-10 23:33N 36°17' W 008°13'1313.1
2014-Jul-10 22:33N 36°20' W 008°29'1313.0
2014-Jul-10 21:33N 36°23' W 008°45'1312.9
2014-Jul-10 20:33N 36°26' W 008°60'1312.7
2014-Jul-10 19:33N 36°29' W 009°15'1312.7
2014-Jul-10 18:33N 36°37' W 009°28'1312.6
2014-Jul-10 17:33N 36°47' W 009°38'1313.0
2014-Jul-10 16:33N 36°60' W 009°42'1313.1
2014-Jul-10 15:31N 37°13' W 009°45'1313.1
2014-Jul-10 14:33N 37°25' W 009°49'1313.1
2014-Jul-10 13:33N 37°38' W 009°52'1413.4
2014-Jul-10 12:33N 37°51' W 009°56'1313.2
2014-Jul-10 11:33N 38°04' W 010°00'1313.1
2014-Jul-10 10:33N 38°16' W 010°04'1313.3
2014-Jul-10 09:33N 38°29' W 010°08'2613.1
2014-Jul-10 07:33N 38°55' W 010°11'1312.8
2014-Jul-10 06:33N 39°08' W 010°11'1313.0
2014-Jul-10 05:33N 39°21' W 010°11'1312.7
2014-Jul-10 04:33N 39°34' W 010°11'  
2014-Jul-07 11:22N 50°26' W 000°23'1213.7
2014-Jul-07 10:30N 50°29' W 000°05'1313.8
2014-Jul-07 09:32N 50°33' E 000°15'1313.5
2014-Jul-07 08:33N 50°36' E 000°35'1312.8
2014-Jul-07 07:33N 50°44' E 000°51'1411.9
2014-Jul-07 06:23N 50°53' E 001°08'911.3
2014-Jul-07 05:33N 50°59' E 001°19'1211.6
2014-Jul-07 04:33N 51°07' E 001°33'1312.9
2014-Jul-07 03:33N 51°16' E 001°48'1212.2
2014-Jul-07 02:33N 51°24' E 002°02'1512.1
2014-Jul-07 01:18N 51°22' E 002°27'1112.4
2014-Jul-07 00:27N 51°23' E 002°43'1111.2
2014-Jul-06 23:30N 51°25' E 003°00'1213.2
2014-Jul-06 22:33N 51°24' E 003°20'1212.4
2014-Jul-06 21:33N 51°26' E 003°40'1110.7
2014-Jul-06 20:33N 51°22' E 003°56'7 6.7
2014-Jul-06 19:33N 51°22' E 004°06'7 7.0
2014-Jul-06 18:34N 51°21' E 004°17'0 0.1
2014-Jul-06 17:33N 51°21' E 004°17'3 3.0
2014-Jul-06 16:33N 51°18' E 004°20'1 0.9
2014-Jul-06 15:33N 51°17' E 004°20'0 0.0
2014-Jul-06 14:33N 51°17' E 004°20'0 0.0
2014-Jul-06 13:33N 51°17' E 004°20'0 0.0
2014-Jul-06 12:33N 51°17' E 004°20'0 0.0
2014-Jul-06 11:33N 51°17' E 004°20'0 0.0
2014-Jul-06 10:33N 51°17' E 004°20'0 0.0
2014-Jul-06 09:33N 51°17' E 004°20'0 0.0
2014-Jul-06 08:27N 51°17' E 004°20'0 0.0
2014-Jul-06 07:33N 51°17' E 004°20'0 0.0
2014-Jul-06 06:27N 51°17' E 004°20'0 0.0
2014-Jul-06 05:33N 51°17' E 004°20'0 0.0
2014-Jul-06 04:33N 51°17' E 004°20'0 0.0
2014-Jul-06 03:33N 51°17' E 004°20'0 0.0
2014-Jul-06 02:33N 51°17' E 004°20'0 0.0
2014-Jul-06 01:33N 51°17' E 004°20'0 0.0
2014-Jul-06 00:33N 51°17' E 004°20'0 0.0
2014-Jul-05 23:33N 51°17' E 004°20'0 0.0
2014-Jul-05 22:30N 51°17' E 004°20'0 0.0
2014-Jul-05 21:33N 51°17' E 004°20'0 0.0
2014-Jul-05 20:33N 51°17' E 004°20'0 0.0
2014-Jul-05 19:30N 51°17' E 004°20'0 0.0
2014-Jul-05 18:30N 51°17' E 004°20'0 0.0
2014-Jul-05 17:30N 51°17' E 004°20'0 0.0
2014-Jul-05 16:33N 51°17' E 004°20'0 0.0
2014-Jul-05 15:30N 51°17' E 004°20'0 0.0
2014-Jul-05 14:33N 51°17' E 004°20'0 0.0
2014-Jul-05 13:33N 51°17' E 004°20'0 0.0
2014-Jul-05 12:33N 51°17' E 004°20'0 0.0
2014-Jul-05 11:33N 51°17' E 004°20'0 0.0
2014-Jul-05 10:30N 51°17' E 004°20'0 0.0
2014-Jul-05 09:27N 51°17' E 004°20'0 0.0
2014-Jul-05 08:30N 51°17' E 004°20'0 0.0
2014-Jul-05 07:30N 51°17' E 004°20'0 0.0
2014-Jul-05 06:33N 51°17' E 004°20'0 0.0
2014-Jul-05 05:33N 51°17' E 004°20'0 0.0
2014-Jul-05 04:27N 51°17' E 004°20'0 0.0
2014-Jul-05 03:30N 51°17' E 004°20'0 0.0
2014-Jul-05 02:33N 51°17' E 004°20'0 0.0
2014-Jul-05 01:33N 51°17' E 004°20'0 0.0
2014-Jul-05 00:33N 51°17' E 004°20'0 0.0
2014-Jul-04 23:33N 51°17' E 004°20'0 0.0
2014-Jul-04 22:33N 51°17' E 004°20'0 0.0
2014-Jul-04 21:33N 51°17' E 004°20'0 0.0
2014-Jul-04 20:30N 51°17' E 004°20'0 0.0
2014-Jul-04 19:33N 51°17' E 004°20'  

Dump ship's entire track history